sensor_id;sensor_type;location;lat;lon;timestamp;P1;durP1;ratioP1;P2;durP2;ratioP2
30173;SDS011;16985;50.814;8.530;2023-05-29T00:01:20;9.05;;;4.13;;
30173;SDS011;16985;50.814;8.530;2023-05-29T00:06:15;13.35;;;4.57;;
30173;SDS011;16985;50.814;8.530;2023-05-29T00:08:41;8.93;;;3.90;;
30173;SDS011;16985;50.814;8.530;2023-05-29T00:11:07;11.50;;;4.63;;
30173;SDS011;16985;50.814;8.530;2023-05-29T00:13:33;10.38;;;4.50;;
30173;SDS011;16985;50.814;8.530;2023-05-29T00:16:14;11.15;;;4.50;;
30173;SDS011;16985;50.814;8.530;2023-05-29T00:18:42;11.35;;;4.80;;
30173;SDS011;16985;50.814;8.530;2023-05-29T00:21:10;7.72;;;4.22;;
30173;SDS011;16985;50.814;8.530;2023-05-29T00:26:04;8.95;;;3.95;;
30173;SDS011;16985;50.814;8.530;2023-05-29T00:28:30;7.18;;;3.67;;
30173;SDS011;16985;50.814;8.530;2023-05-29T00:30:56;7.53;;;3.67;;
30173;SDS011;16985;50.814;8.530;2023-05-29T00:33:22;11.52;;;5.00;;
30173;SDS011;16985;50.814;8.530;2023-05-29T00:35:47;8.00;;;4.03;;
30173;SDS011;16985;50.814;8.530;2023-05-29T00:38:14;7.50;;;3.85;;
30173;SDS011;16985;50.814;8.530;2023-05-29T00:40:40;7.18;;;3.60;;
30173;SDS011;16985;50.814;8.530;2023-05-29T00:43:06;10.35;;;4.72;;
30173;SDS011;16985;50.814;8.530;2023-05-29T00:45:32;9.25;;;4.22;;
30173;SDS011;16985;50.814;8.530;2023-05-29T00:48:01;11.52;;;5.05;;
30173;SDS011;16985;50.814;8.530;2023-05-29T00:50:28;7.80;;;4.20;;
30173;SDS011;16985;50.814;8.530;2023-05-29T00:52:55;8.38;;;4.55;;
30173;SDS011;16985;50.814;8.530;2023-05-29T00:55:21;11.00;;;4.93;;
30173;SDS011;16985;50.814;8.530;2023-05-29T00:57:48;9.88;;;5.05;;
30173;SDS011;16985;50.814;8.530;2023-05-29T01:00:14;13.57;;;5.97;;
30173;SDS011;16985;50.814;8.530;2023-05-29T01:02:43;10.77;;;5.43;;
30173;SDS011;16985;50.814;8.530;2023-05-29T01:05:10;15.00;;;5.40;;
30173;SDS011;16985;50.814;8.530;2023-05-29T01:07:38;18.83;;;5.68;;
30173;SDS011;16985;50.814;8.530;2023-05-29T01:10:04;13.35;;;5.45;;
30173;SDS011;16985;50.814;8.530;2023-05-29T01:12:36;10.00;;;5.40;;
30173;SDS011;16985;50.814;8.530;2023-05-29T01:15:20;10.23;;;4.60;;
30173;SDS011;16985;50.814;8.530;2023-05-29T01:18:07;9.32;;;4.68;;
30173;SDS011;16985;50.814;8.530;2023-05-29T01:20:50;11.20;;;4.35;;
30173;SDS011;16985;50.814;8.530;2023-05-29T01:26:54;8.63;;;5.22;;
30173;SDS011;16985;50.814;8.530;2023-05-29T01:29:35;10.40;;;4.70;;
30173;SDS011;16985;50.814;8.530;2023-05-29T01:32:04;9.18;;;5.07;;
30173;SDS011;16985;50.814;8.530;2023-05-29T01:34:30;9.40;;;4.32;;
30173;SDS011;16985;50.814;8.530;2023-05-29T01:36:57;8.25;;;4.68;;
30173;SDS011;16985;50.814;8.530;2023-05-29T01:39:23;5.85;;;3.78;;
30173;SDS011;16985;50.814;8.530;2023-05-29T01:41:50;8.27;;;4.70;;
30173;SDS011;16985;50.814;8.530;2023-05-29T01:44:37;8.88;;;4.25;;
30173;SDS011;16985;50.814;8.530;2023-05-29T01:47:06;9.00;;;4.43;;
30173;SDS011;16985;50.814;8.530;2023-05-29T01:49:33;7.50;;;4.90;;
30173;SDS011;16985;50.814;8.530;2023-05-29T01:52:02;12.10;;;4.63;;
30173;SDS011;16985;50.814;8.530;2023-05-29T01:54:28;13.15;;;4.40;;
30173;SDS011;16985;50.814;8.530;2023-05-29T01:56:54;11.90;;;5.32;;
30173;SDS011;16985;50.814;8.530;2023-05-29T01:59:20;8.80;;;4.07;;
30173;SDS011;16985;50.814;8.530;2023-05-29T02:01:55;10.43;;;4.25;;
30173;SDS011;16985;50.814;8.530;2023-05-29T02:04:21;14.02;;;5.57;;
30173;SDS011;16985;50.814;8.530;2023-05-29T02:06:47;8.20;;;4.45;;
30173;SDS011;16985;50.814;8.530;2023-05-29T02:09:12;12.57;;;4.55;;
30173;SDS011;16985;50.814;8.530;2023-05-29T02:11:38;9.52;;;4.15;;
30173;SDS011;16985;50.814;8.530;2023-05-29T02:14:09;9.70;;;4.38;;
30173;SDS011;16985;50.814;8.530;2023-05-29T02:16:36;7.85;;;4.50;;
30173;SDS011;16985;50.814;8.530;2023-05-29T02:19:01;7.60;;;4.40;;
30173;SDS011;16985;50.814;8.530;2023-05-29T02:21:27;9.38;;;4.57;;
30173;SDS011;16985;50.814;8.530;2023-05-29T02:23:53;10.18;;;4.65;;
30173;SDS011;16985;50.814;8.530;2023-05-29T02:26:19;14.23;;;4.65;;
30173;SDS011;16985;50.814;8.530;2023-05-29T02:28:45;10.43;;;4.75;;
30173;SDS011;16985;50.814;8.530;2023-05-29T02:31:11;9.77;;;4.15;;
30173;SDS011;16985;50.814;8.530;2023-05-29T02:33:37;9.13;;;5.68;;
30173;SDS011;16985;50.814;8.530;2023-05-29T02:36:03;9.63;;;4.30;;
30173;SDS011;16985;50.814;8.530;2023-05-29T02:38:29;11.75;;;5.20;;
30173;SDS011;16985;50.814;8.530;2023-05-29T02:40:55;6.05;;;4.32;;
30173;SDS011;16985;50.814;8.530;2023-05-29T02:43:24;8.52;;;4.55;;
30173;SDS011;16985;50.814;8.530;2023-05-29T02:45:50;12.07;;;3.92;;
30173;SDS011;16985;50.814;8.530;2023-05-29T02:48:16;11.15;;;4.80;;
30173;SDS011;16985;50.814;8.530;2023-05-29T02:50:41;8.07;;;4.63;;
30173;SDS011;16985;50.814;8.530;2023-05-29T02:53:07;8.35;;;4.45;;
30173;SDS011;16985;50.814;8.530;2023-05-29T02:55:33;8.20;;;4.20;;
30173;SDS011;16985;50.814;8.530;2023-05-29T02:58:01;11.02;;;4.63;;
30173;SDS011;16985;50.814;8.530;2023-05-29T03:00:27;9.77;;;4.95;;
30173;SDS011;16985;50.814;8.530;2023-05-29T03:02:57;6.60;;;4.00;;
30173;SDS011;16985;50.814;8.530;2023-05-29T03:05:22;9.63;;;5.28;;
30173;SDS011;16985;50.814;8.530;2023-05-29T03:07:48;11.88;;;4.72;;
30173;SDS011;16985;50.814;8.530;2023-05-29T03:10:14;8.43;;;4.93;;
30173;SDS011;16985;50.814;8.530;2023-05-29T03:12:42;11.57;;;4.60;;
30173;SDS011;16985;50.814;8.530;2023-05-29T03:15:09;13.27;;;5.18;;
30173;SDS011;16985;50.814;8.530;2023-05-29T03:17:36;7.85;;;4.35;;
30173;SDS011;16985;50.814;8.530;2023-05-29T03:20:04;13.10;;;5.43;;
30173;SDS011;16985;50.814;8.530;2023-05-29T03:22:31;11.07;;;4.43;;
30173;SDS011;16985;50.814;8.530;2023-05-29T03:24:57;7.55;;;4.68;;
30173;SDS011;16985;50.814;8.530;2023-05-29T03:27:23;9.68;;;4.10;;
30173;SDS011;16985;50.814;8.530;2023-05-29T03:29:58;12.55;;;4.85;;
30173;SDS011;16985;50.814;8.530;2023-05-29T03:32:25;10.15;;;4.90;;
30173;SDS011;16985;50.814;8.530;2023-05-29T03:34:50;10.52;;;4.32;;
30173;SDS011;16985;50.814;8.530;2023-05-29T03:37:17;10.32;;;4.28;;
30173;SDS011;16985;50.814;8.530;2023-05-29T03:39:43;13.95;;;5.32;;
30173;SDS011;16985;50.814;8.530;2023-05-29T03:42:09;11.23;;;4.40;;
30173;SDS011;16985;50.814;8.530;2023-05-29T03:44:51;7.30;;;4.05;;
30173;SDS011;16985;50.814;8.530;2023-05-29T03:47:17;7.60;;;4.90;;
30173;SDS011;16985;50.814;8.530;2023-05-29T03:49:44;7.80;;;4.65;;
30173;SDS011;16985;50.814;8.530;2023-05-29T03:52:10;9.63;;;4.82;;
30173;SDS011;16985;50.814;8.530;2023-05-29T03:54:36;8.57;;;4.93;;
30173;SDS011;16985;50.814;8.530;2023-05-29T03:57:02;9.65;;;5.45;;
30173;SDS011;16985;50.814;8.530;2023-05-29T03:59:28;12.75;;;5.63;;
30173;SDS011;16985;50.814;8.530;2023-05-29T04:01:54;11.43;;;5.03;;
30173;SDS011;16985;50.814;8.530;2023-05-29T04:04:20;12.98;;;5.28;;
30173;SDS011;16985;50.814;8.530;2023-05-29T04:06:45;13.57;;;5.65;;
30173;SDS011;16985;50.814;8.530;2023-05-29T04:09:11;11.45;;;5.15;;
30173;SDS011;16985;50.814;8.530;2023-05-29T04:11:37;8.20;;;4.35;;
30173;SDS011;16985;50.814;8.530;2023-05-29T04:14:04;10.93;;;4.85;;
30173;SDS011;16985;50.814;8.530;2023-05-29T04:16:31;11.00;;;4.97;;
30173;SDS011;16985;50.814;8.530;2023-05-29T04:18:56;9.43;;;4.53;;
30173;SDS011;16985;50.814;8.530;2023-05-29T04:21:25;7.13;;;4.78;;
30173;SDS011;16985;50.814;8.530;2023-05-29T04:23:52;7.07;;;5.18;;
30173;SDS011;16985;50.814;8.530;2023-05-29T04:26:34;10.30;;;5.07;;
30173;SDS011;16985;50.814;8.530;2023-05-29T04:28:59;11.30;;;4.95;;
30173;SDS011;16985;50.814;8.530;2023-05-29T04:31:26;14.98;;;4.82;;
30173;SDS011;16985;50.814;8.530;2023-05-29T04:33:53;8.83;;;4.60;;
30173;SDS011;16985;50.814;8.530;2023-05-29T04:36:23;8.13;;;4.53;;
30173;SDS011;16985;50.814;8.530;2023-05-29T04:38:53;14.10;;;5.22;;
30173;SDS011;16985;50.814;8.530;2023-05-29T04:41:20;10.00;;;5.30;;
30173;SDS011;16985;50.814;8.530;2023-05-29T04:43:55;9.30;;;4.95;;
30173;SDS011;16985;50.814;8.530;2023-05-29T04:46:23;11.50;;;5.05;;
30173;SDS011;16985;50.814;8.530;2023-05-29T04:48:50;10.57;;;5.07;;
30173;SDS011;16985;50.814;8.530;2023-05-29T04:51:20;11.48;;;5.40;;
30173;SDS011;16985;50.814;8.530;2023-05-29T04:53:47;11.05;;;5.15;;
30173;SDS011;16985;50.814;8.530;2023-05-29T04:56:16;12.23;;;5.28;;
30173;SDS011;16985;50.814;8.530;2023-05-29T04:58:44;11.13;;;6.13;;
30173;SDS011;16985;50.814;8.530;2023-05-29T05:01:10;11.93;;;5.22;;
30173;SDS011;16985;50.814;8.530;2023-05-29T05:03:51;8.52;;;4.97;;
30173;SDS011;16985;50.814;8.530;2023-05-29T05:06:23;15.20;;;5.22;;
30173;SDS011;16985;50.814;8.530;2023-05-29T05:08:50;7.07;;;4.35;;
30173;SDS011;16985;50.814;8.530;2023-05-29T05:11:21;9.57;;;4.63;;
30173;SDS011;16985;50.814;8.530;2023-05-29T05:13:48;8.70;;;4.10;;
30173;SDS011;16985;50.814;8.530;2023-05-29T05:16:15;9.48;;;4.95;;
30173;SDS011;16985;50.814;8.530;2023-05-29T05:18:43;11.00;;;5.57;;
30173;SDS011;16985;50.814;8.530;2023-05-29T05:21:09;7.65;;;4.68;;
30173;SDS011;16985;50.814;8.530;2023-05-29T05:23:35;10.10;;;4.45;;
30173;SDS011;16985;50.814;8.530;2023-05-29T05:26:02;10.38;;;4.65;;
30173;SDS011;16985;50.814;8.530;2023-05-29T05:28:29;7.57;;;4.20;;
30173;SDS011;16985;50.814;8.530;2023-05-29T05:30:55;7.85;;;4.78;;
30173;SDS011;16985;50.814;8.530;2023-05-29T05:33:21;10.10;;;5.13;;
30173;SDS011;16985;50.814;8.530;2023-05-29T05:38:16;12.32;;;4.35;;
30173;SDS011;16985;50.814;8.530;2023-05-29T05:40:43;11.75;;;5.30;;
30173;SDS011;16985;50.814;8.530;2023-05-29T05:43:21;12.27;;;4.30;;
30173;SDS011;16985;50.814;8.530;2023-05-29T05:46:10;13.32;;;5.53;;
30173;SDS011;16985;50.814;8.530;2023-05-29T05:48:36;10.98;;;4.35;;
30173;SDS011;16985;50.814;8.530;2023-05-29T05:51:02;10.35;;;5.07;;
30173;SDS011;16985;50.814;8.530;2023-05-29T05:53:29;11.23;;;5.38;;
30173;SDS011;16985;50.814;8.530;2023-05-29T05:55:56;8.20;;;4.28;;
30173;SDS011;16985;50.814;8.530;2023-05-29T05:58:22;10.02;;;4.18;;
30173;SDS011;16985;50.814;8.530;2023-05-29T06:00:48;8.35;;;4.30;;
30173;SDS011;16985;50.814;8.530;2023-05-29T06:03:18;8.18;;;4.82;;
30173;SDS011;16985;50.814;8.530;2023-05-29T06:06:01;8.88;;;5.00;;
30173;SDS011;16985;50.814;8.530;2023-05-29T06:08:27;8.15;;;5.00;;
30173;SDS011;16985;50.814;8.530;2023-05-29T06:10:53;10.48;;;4.55;;
30173;SDS011;16985;50.814;8.530;2023-05-29T06:13:19;10.00;;;4.55;;
30173;SDS011;16985;50.814;8.530;2023-05-29T06:15:49;11.68;;;4.18;;
30173;SDS011;16985;50.814;8.530;2023-05-29T06:18:15;9.90;;;4.32;;
30173;SDS011;16985;50.814;8.530;2023-05-29T06:20:41;12.57;;;4.43;;
30173;SDS011;16985;50.814;8.530;2023-05-29T06:23:07;9.27;;;4.53;;
30173;SDS011;16985;50.814;8.530;2023-05-29T06:25:35;14.40;;;5.15;;
30173;SDS011;16985;50.814;8.530;2023-05-29T06:28:01;8.75;;;4.47;;
30173;SDS011;16985;50.814;8.530;2023-05-29T06:30:27;10.38;;;5.13;;
30173;SDS011;16985;50.814;8.530;2023-05-29T06:32:53;10.15;;;4.38;;
30173;SDS011;16985;50.814;8.530;2023-05-29T06:35:25;8.50;;;5.05;;
30173;SDS011;16985;50.814;8.530;2023-05-29T06:37:51;8.15;;;4.68;;
30173;SDS011;16985;50.814;8.530;2023-05-29T06:40:20;15.43;;;4.95;;
30173;SDS011;16985;50.814;8.530;2023-05-29T06:42:46;9.13;;;4.18;;
30173;SDS011;16985;50.814;8.530;2023-05-29T06:45:15;11.10;;;4.68;;
30173;SDS011;16985;50.814;8.530;2023-05-29T06:47:41;13.13;;;5.47;;
30173;SDS011;16985;50.814;8.530;2023-05-29T06:50:08;7.47;;;5.15;;
30173;SDS011;16985;50.814;8.530;2023-05-29T06:52:36;10.50;;;4.18;;
30173;SDS011;16985;50.814;8.530;2023-05-29T06:55:25;7.85;;;4.10;;
30173;SDS011;16985;50.814;8.530;2023-05-29T06:57:53;10.32;;;4.45;;
30173;SDS011;16985;50.814;8.530;2023-05-29T07:00:19;10.18;;;4.88;;
30173;SDS011;16985;50.814;8.530;2023-05-29T07:02:55;9.15;;;4.70;;
30173;SDS011;16985;50.814;8.530;2023-05-29T07:05:21;9.93;;;4.07;;
30173;SDS011;16985;50.814;8.530;2023-05-29T07:07:47;11.35;;;4.53;;
30173;SDS011;16985;50.814;8.530;2023-05-29T07:10:14;16.17;;;5.03;;
30173;SDS011;16985;50.814;8.530;2023-05-29T07:12:41;11.52;;;5.00;;
30173;SDS011;16985;50.814;8.530;2023-05-29T07:15:07;13.70;;;5.20;;
30173;SDS011;16985;50.814;8.530;2023-05-29T07:17:33;8.05;;;4.70;;
30173;SDS011;16985;50.814;8.530;2023-05-29T07:20:09;8.00;;;3.92;;
30173;SDS011;16985;50.814;8.530;2023-05-29T07:22:37;13.07;;;4.53;;
30173;SDS011;16985;50.814;8.530;2023-05-29T07:25:04;10.65;;;5.40;;
30173;SDS011;16985;50.814;8.530;2023-05-29T07:27:30;9.80;;;4.57;;
30173;SDS011;16985;50.814;8.530;2023-05-29T07:29:56;8.73;;;4.82;;
30173;SDS011;16985;50.814;8.530;2023-05-29T07:32:22;12.35;;;4.72;;
30173;SDS011;16985;50.814;8.530;2023-05-29T07:34:48;7.93;;;5.22;;
30173;SDS011;16985;50.814;8.530;2023-05-29T07:37:15;9.30;;;4.03;;
30173;SDS011;16985;50.814;8.530;2023-05-29T07:39:42;8.65;;;4.00;;
30173;SDS011;16985;50.814;8.530;2023-05-29T07:42:27;14.63;;;4.45;;
30173;SDS011;16985;50.814;8.530;2023-05-29T07:44:53;10.00;;;4.25;;
30173;SDS011;16985;50.814;8.530;2023-05-29T07:47:19;12.55;;;4.38;;
30173;SDS011;16985;50.814;8.530;2023-05-29T07:49:46;6.70;;;4.03;;
30173;SDS011;16985;50.814;8.530;2023-05-29T07:52:12;8.95;;;4.55;;
30173;SDS011;16985;50.814;8.530;2023-05-29T07:54:40;7.90;;;4.47;;
30173;SDS011;16985;50.814;8.530;2023-05-29T07:57:07;8.02;;;3.72;;
30173;SDS011;16985;50.814;8.530;2023-05-29T07:59:40;10.68;;;3.90;;
30173;SDS011;16985;50.814;8.530;2023-05-29T08:02:08;10.32;;;4.82;;
30173;SDS011;16985;50.814;8.530;2023-05-29T08:04:49;9.60;;;4.18;;
30173;SDS011;16985;50.814;8.530;2023-05-29T08:07:15;9.55;;;3.90;;
30173;SDS011;16985;50.814;8.530;2023-05-29T08:09:41;10.68;;;4.80;;
30173;SDS011;16985;50.814;8.530;2023-05-29T08:12:07;10.05;;;4.18;;
30173;SDS011;16985;50.814;8.530;2023-05-29T08:14:33;9.52;;;4.20;;
30173;SDS011;16985;50.814;8.530;2023-05-29T08:17:01;11.07;;;4.47;;
30173;SDS011;16985;50.814;8.530;2023-05-29T08:19:27;12.82;;;4.22;;
30173;SDS011;16985;50.814;8.530;2023-05-29T08:21:53;8.73;;;3.28;;
30173;SDS011;16985;50.814;8.530;2023-05-29T08:24:18;9.90;;;3.90;;
30173;SDS011;16985;50.814;8.530;2023-05-29T08:26:45;6.93;;;3.13;;
30173;SDS011;16985;50.814;8.530;2023-05-29T08:29:11;9.10;;;3.53;;
30173;SDS011;16985;50.814;8.530;2023-05-29T08:31:37;10.38;;;3.72;;
30173;SDS011;16985;50.814;8.530;2023-05-29T08:34:03;9.88;;;3.78;;
30173;SDS011;16985;50.814;8.530;2023-05-29T08:36:28;11.05;;;3.67;;
30173;SDS011;16985;50.814;8.530;2023-05-29T08:38:54;6.88;;;3.75;;
30173;SDS011;16985;50.814;8.530;2023-05-29T08:41:25;11.15;;;4.00;;
30173;SDS011;16985;50.814;8.530;2023-05-29T08:44:07;6.88;;;3.80;;
30173;SDS011;16985;50.814;8.530;2023-05-29T08:46:38;10.05;;;4.00;;
30173;SDS011;16985;50.814;8.530;2023-05-29T08:49:05;8.48;;;3.38;;
30173;SDS011;16985;50.814;8.530;2023-05-29T08:51:35;6.05;;;3.28;;
30173;SDS011;16985;50.814;8.530;2023-05-29T08:54:11;6.55;;;3.53;;
30173;SDS011;16985;50.814;8.530;2023-05-29T08:56:39;14.27;;;3.88;;
30173;SDS011;16985;50.814;8.530;2023-05-29T08:59:05;5.75;;;3.10;;
30173;SDS011;16985;50.814;8.530;2023-05-29T09:01:33;7.63;;;3.20;;
30173;SDS011;16985;50.814;8.530;2023-05-29T09:04:00;7.75;;;3.50;;
30173;SDS011;16985;50.814;8.530;2023-05-29T09:06:27;8.10;;;3.63;;
30173;SDS011;16985;50.814;8.530;2023-05-29T09:08:53;7.30;;;3.55;;
30173;SDS011;16985;50.814;8.530;2023-05-29T09:11:19;7.45;;;3.83;;
30173;SDS011;16985;50.814;8.530;2023-05-29T09:13:46;8.90;;;3.97;;
30173;SDS011;16985;50.814;8.530;2023-05-29T09:16:12;9.57;;;3.60;;
30173;SDS011;16985;50.814;8.530;2023-05-29T09:18:37;9.25;;;4.10;;
30173;SDS011;16985;50.814;8.530;2023-05-29T09:21:07;10.27;;;3.92;;
30173;SDS011;16985;50.814;8.530;2023-05-29T09:23:34;5.38;;;3.20;;
30173;SDS011;16985;50.814;8.530;2023-05-29T09:26:01;5.93;;;3.45;;
30173;SDS011;16985;50.814;8.530;2023-05-29T09:28:29;9.63;;;4.05;;
30173;SDS011;16985;50.814;8.530;2023-05-29T09:30:56;10.82;;;3.45;;
30173;SDS011;16985;50.814;8.530;2023-05-29T09:33:22;9.00;;;3.47;;
30173;SDS011;16985;50.814;8.530;2023-05-29T09:35:48;11.85;;;4.07;;
30173;SDS011;16985;50.814;8.530;2023-05-29T09:38:19;6.30;;;3.53;;
30173;SDS011;16985;50.814;8.530;2023-05-29T09:40:46;9.70;;;4.18;;
30173;SDS011;16985;50.814;8.530;2023-05-29T09:43:12;9.27;;;3.78;;
30173;SDS011;16985;50.814;8.530;2023-05-29T09:45:42;10.93;;;3.78;;
30173;SDS011;16985;50.814;8.530;2023-05-29T09:48:14;6.70;;;3.58;;
30173;SDS011;16985;50.814;8.530;2023-05-29T09:50:46;8.27;;;3.78;;
30173;SDS011;16985;50.814;8.530;2023-05-29T09:53:15;10.57;;;3.20;;
30173;SDS011;16985;50.814;8.530;2023-05-29T09:55:47;6.22;;;3.40;;
30173;SDS011;16985;50.814;8.530;2023-05-29T09:58:16;5.50;;;3.05;;
30173;SDS011;16985;50.814;8.530;2023-05-29T10:03:10;8.68;;;3.63;;
30173;SDS011;16985;50.814;8.530;2023-05-29T10:05:41;9.50;;;3.35;;
30173;SDS011;16985;50.814;8.530;2023-05-29T10:08:09;9.07;;;3.58;;
30173;SDS011;16985;50.814;8.530;2023-05-29T10:10:48;6.32;;;3.40;;
30173;SDS011;16985;50.814;8.530;2023-05-29T10:13:30;5.13;;;3.00;;
30173;SDS011;16985;50.814;8.530;2023-05-29T10:16:01;6.30;;;3.20;;
30173;SDS011;16985;50.814;8.530;2023-05-29T10:18:37;8.13;;;3.17;;
30173;SDS011;16985;50.814;8.530;2023-05-29T10:21:26;11.02;;;2.78;;
30173;SDS011;16985;50.814;8.530;2023-05-29T10:23:53;4.88;;;2.88;;
30173;SDS011;16985;50.814;8.530;2023-05-29T10:26:22;8.00;;;3.40;;
30173;SDS011;16985;50.814;8.530;2023-05-29T10:31:37;5.57;;;2.95;;
30173;SDS011;16985;50.814;8.530;2023-05-29T10:37:50;4.97;;;3.00;;
30173;SDS011;16985;50.814;8.530;2023-05-29T10:40:26;4.45;;;2.92;;
30173;SDS011;16985;50.814;8.530;2023-05-29T10:42:52;7.60;;;3.25;;
30173;SDS011;16985;50.814;8.530;2023-05-29T10:47:56;10.05;;;3.45;;
30173;SDS011;16985;50.814;8.530;2023-05-29T10:50:45;7.35;;;3.22;;
30173;SDS011;16985;50.814;8.530;2023-05-29T10:53:16;10.52;;;3.28;;
30173;SDS011;16985;50.814;8.530;2023-05-29T10:55:44;14.50;;;3.13;;
30173;SDS011;16985;50.814;8.530;2023-05-29T10:58:21;5.28;;;2.55;;
30173;SDS011;16985;50.814;8.530;2023-05-29T11:00:53;6.20;;;3.50;;
30173;SDS011;16985;50.814;8.530;2023-05-29T11:03:22;7.15;;;2.90;;
30173;SDS011;16985;50.814;8.530;2023-05-29T11:06:03;8.77;;;3.30;;
30173;SDS011;16985;50.814;8.530;2023-05-29T11:08:44;8.20;;;3.10;;
30173;SDS011;16985;50.814;8.530;2023-05-29T11:11:13;5.03;;;2.92;;
30173;SDS011;16985;50.814;8.530;2023-05-29T11:13:40;4.65;;;2.65;;
30173;SDS011;16985;50.814;8.530;2023-05-29T11:16:20;5.93;;;2.83;;
30173;SDS011;16985;50.814;8.530;2023-05-29T11:19:07;8.00;;;2.97;;
30173;SDS011;16985;50.814;8.530;2023-05-29T11:24:34;6.63;;;3.13;;
30173;SDS011;16985;50.814;8.530;2023-05-29T11:27:02;10.20;;;3.30;;
30173;SDS011;16985;50.814;8.530;2023-05-29T11:29:33;5.82;;;3.08;;
30173;SDS011;16985;50.814;8.530;2023-05-29T11:32:06;5.85;;;3.55;;
30173;SDS011;16985;50.814;8.530;2023-05-29T11:34:39;4.13;;;2.78;;
30173;SDS011;16985;50.814;8.530;2023-05-29T11:37:06;3.72;;;2.50;;
30173;SDS011;16985;50.814;8.530;2023-05-29T11:39:35;7.03;;;3.15;;
30173;SDS011;16985;50.814;8.530;2023-05-29T11:42:02;9.38;;;2.90;;
30173;SDS011;16985;50.814;8.530;2023-05-29T11:44:28;8.52;;;2.85;;
30173;SDS011;16985;50.814;8.530;2023-05-29T11:47:04;5.78;;;2.65;;
30173;SDS011;16985;50.814;8.530;2023-05-29T11:49:32;6.82;;;3.40;;
30173;SDS011;16985;50.814;8.530;2023-05-29T11:52:09;5.78;;;2.78;;
30173;SDS011;16985;50.814;8.530;2023-05-29T11:54:37;7.72;;;3.50;;
30173;SDS011;16985;50.814;8.530;2023-05-29T11:57:03;8.65;;;3.47;;
30173;SDS011;16985;50.814;8.530;2023-05-29T11:59:32;6.13;;;3.05;;
30173;SDS011;16985;50.814;8.530;2023-05-29T12:01:59;7.93;;;2.88;;
30173;SDS011;16985;50.814;8.530;2023-05-29T12:04:33;10.77;;;3.00;;
30173;SDS011;16985;50.814;8.530;2023-05-29T12:06:59;5.93;;;3.05;;
30173;SDS011;16985;50.814;8.530;2023-05-29T12:09:26;5.18;;;3.15;;
30173;SDS011;16985;50.814;8.530;2023-05-29T12:12:03;4.43;;;2.75;;
30173;SDS011;16985;50.814;8.530;2023-05-29T12:14:31;5.35;;;2.80;;
30173;SDS011;16985;50.814;8.530;2023-05-29T12:16:58;5.07;;;2.75;;
30173;SDS011;16985;50.814;8.530;2023-05-29T12:19:24;6.82;;;3.22;;
30173;SDS011;16985;50.814;8.530;2023-05-29T12:21:50;6.35;;;3.30;;
30173;SDS011;16985;50.814;8.530;2023-05-29T12:24:17;6.38;;;3.33;;
30173;SDS011;16985;50.814;8.530;2023-05-29T12:26:44;6.93;;;3.38;;
30173;SDS011;16985;50.814;8.530;2023-05-29T12:31:38;9.45;;;3.20;;
30173;SDS011;16985;50.814;8.530;2023-05-29T12:34:08;7.55;;;3.20;;
30173;SDS011;16985;50.814;8.530;2023-05-29T12:36:39;6.78;;;3.47;;
30173;SDS011;16985;50.814;8.530;2023-05-29T12:39:08;5.93;;;2.80;;
30173;SDS011;16985;50.814;8.530;2023-05-29T12:41:35;6.72;;;3.38;;
30173;SDS011;16985;50.814;8.530;2023-05-29T12:44:19;6.75;;;3.15;;
30173;SDS011;16985;50.814;8.530;2023-05-29T12:46:45;12.20;;;4.03;;
30173;SDS011;16985;50.814;8.530;2023-05-29T12:49:11;11.18;;;4.47;;
30173;SDS011;16985;50.814;8.530;2023-05-29T12:51:44;8.73;;;3.20;;
30173;SDS011;16985;50.814;8.530;2023-05-29T12:54:11;7.90;;;2.30;;
30173;SDS011;16985;50.814;8.530;2023-05-29T12:56:41;10.13;;;3.10;;
30173;SDS011;16985;50.814;8.530;2023-05-29T12:59:08;9.13;;;3.13;;
30173;SDS011;16985;50.814;8.530;2023-05-29T13:01:35;8.65;;;3.30;;
30173;SDS011;16985;50.814;8.530;2023-05-29T13:04:05;6.13;;;2.78;;
30173;SDS011;16985;50.814;8.530;2023-05-29T13:06:35;9.55;;;2.58;;
30173;SDS011;16985;50.814;8.530;2023-05-29T13:09:03;6.43;;;2.88;;
30173;SDS011;16985;50.814;8.530;2023-05-29T13:11:30;6.43;;;3.40;;
30173;SDS011;16985;50.814;8.530;2023-05-29T13:13:56;6.72;;;3.70;;
30173;SDS011;16985;50.814;8.530;2023-05-29T13:16:22;5.35;;;2.70;;
30173;SDS011;16985;50.814;8.530;2023-05-29T13:18:48;6.97;;;3.10;;
30173;SDS011;16985;50.814;8.530;2023-05-29T13:21:18;8.23;;;3.35;;
30173;SDS011;16985;50.814;8.530;2023-05-29T13:23:44;5.97;;;3.17;;
30173;SDS011;16985;50.814;8.530;2023-05-29T13:26:09;6.80;;;2.88;;
30173;SDS011;16985;50.814;8.530;2023-05-29T13:28:35;6.15;;;2.55;;
30173;SDS011;16985;50.814;8.530;2023-05-29T13:31:01;6.15;;;2.83;;
30173;SDS011;16985;50.814;8.530;2023-05-29T13:33:27;6.38;;;2.90;;
30173;SDS011;16985;50.814;8.530;2023-05-29T13:35:53;7.03;;;2.90;;
30173;SDS011;16985;50.814;8.530;2023-05-29T13:38:18;16.83;;;4.20;;
30173;SDS011;16985;50.814;8.530;2023-05-29T13:40:44;5.30;;;2.60;;
30173;SDS011;16985;50.814;8.530;2023-05-29T13:43:11;6.03;;;2.92;;
30173;SDS011;16985;50.814;8.530;2023-05-29T13:45:36;6.78;;;2.80;;
30173;SDS011;16985;50.814;8.530;2023-05-29T13:48:03;8.38;;;2.80;;
30173;SDS011;16985;50.814;8.530;2023-05-29T13:50:28;7.63;;;2.92;;
30173;SDS011;16985;50.814;8.530;2023-05-29T13:52:54;6.28;;;2.83;;
30173;SDS011;16985;50.814;8.530;2023-05-29T13:55:20;7.07;;;2.85;;
30173;SDS011;16985;50.814;8.530;2023-05-29T13:57:46;7.47;;;2.63;;
30173;SDS011;16985;50.814;8.530;2023-05-29T14:00:12;10.50;;;3.40;;
30173;SDS011;16985;50.814;8.530;2023-05-29T14:02:38;6.93;;;2.50;;
30173;SDS011;16985;50.814;8.530;2023-05-29T14:05:05;5.50;;;2.88;;
30173;SDS011;16985;50.814;8.530;2023-05-29T14:07:31;7.70;;;2.97;;
30173;SDS011;16985;50.814;8.530;2023-05-29T14:09:57;5.65;;;2.92;;
30173;SDS011;16985;50.814;8.530;2023-05-29T14:12:23;9.35;;;3.03;;
30173;SDS011;16985;50.814;8.530;2023-05-29T14:14:49;6.55;;;2.72;;
30173;SDS011;16985;50.814;8.530;2023-05-29T14:17:25;8.15;;;3.25;;
30173;SDS011;16985;50.814;8.530;2023-05-29T14:19:51;6.75;;;2.78;;
30173;SDS011;16985;50.814;8.530;2023-05-29T14:22:17;9.20;;;3.00;;
30173;SDS011;16985;50.814;8.530;2023-05-29T14:24:43;5.22;;;2.97;;
30173;SDS011;16985;50.814;8.530;2023-05-29T14:27:09;6.50;;;3.03;;
30173;SDS011;16985;50.814;8.530;2023-05-29T14:29:34;4.45;;;2.67;;
30173;SDS011;16985;50.814;8.530;2023-05-29T14:32:00;8.90;;;3.47;;
30173;SDS011;16985;50.814;8.530;2023-05-29T14:34:26;5.05;;;2.97;;
30173;SDS011;16985;50.814;8.530;2023-05-29T14:36:52;6.05;;;2.97;;
30173;SDS011;16985;50.814;8.530;2023-05-29T14:39:18;8.52;;;3.03;;
30173;SDS011;16985;50.814;8.530;2023-05-29T14:41:43;3.75;;;2.65;;
30173;SDS011;16985;50.814;8.530;2023-05-29T14:44:09;9.00;;;2.95;;
30173;SDS011;16985;50.814;8.530;2023-05-29T14:46:37;5.85;;;2.85;;
30173;SDS011;16985;50.814;8.530;2023-05-29T14:49:03;9.93;;;2.92;;
30173;SDS011;16985;50.814;8.530;2023-05-29T14:51:28;7.25;;;3.00;;
30173;SDS011;16985;50.814;8.530;2023-05-29T14:53:54;7.25;;;3.05;;
30173;SDS011;16985;50.814;8.530;2023-05-29T14:56:20;9.70;;;3.45;;
30173;SDS011;16985;50.814;8.530;2023-05-29T14:58:46;7.18;;;3.22;;
30173;SDS011;16985;50.814;8.530;2023-05-29T15:01:16;7.72;;;3.20;;
30173;SDS011;16985;50.814;8.530;2023-05-29T15:03:42;6.85;;;3.17;;
30173;SDS011;16985;50.814;8.530;2023-05-29T15:06:09;6.78;;;3.00;;
30173;SDS011;16985;50.814;8.530;2023-05-29T15:08:37;5.72;;;3.05;;
30173;SDS011;16985;50.814;8.530;2023-05-29T15:11:05;8.80;;;3.03;;
30173;SDS011;16985;50.814;8.530;2023-05-29T15:13:31;6.00;;;2.50;;
30173;SDS011;16985;50.814;8.530;2023-05-29T15:16:06;7.05;;;3.78;;
30173;SDS011;16985;50.814;8.530;2023-05-29T15:18:32;7.18;;;2.90;;